sensor_id;sensor_type;location;lat;lon;timestamp;temperature;humidity
72762;SHT30;60886;55.034;73.150;2024-03-25T00:00:21;1.45;82.00
72762;SHT30;60886;55.034;73.150;2024-03-25T00:03:23;1.44;82.07
72762;SHT30;60886;55.034;73.150;2024-03-25T00:06:25;1.50;82.26
72762;SHT30;60886;55.034;73.150;2024-03-25T00:09:27;1.41;82.59
72762;SHT30;60886;55.034;73.150;2024-03-25T00:12:29;1.43;82.31
72762;SHT30;60886;55.034;73.150;2024-03-25T00:15:30;1.50;82.46
72762;SHT30;60886;55.034;73.150;2024-03-25T00:18:32;1.48;82.07
72762;SHT30;60886;55.034;73.150;2024-03-25T00:21:36;1.35;82.20
72762;SHT30;60886;55.034;73.150;2024-03-25T00:24:37;1.33;82.53
72762;SHT30;60886;55.034;73.150;2024-03-25T00:27:39;1.33;82.63
72762;SHT30;60886;55.034;73.150;2024-03-25T00:30:40;1.27;82.35
72762;SHT30;60886;55.034;73.150;2024-03-25T00:33:42;1.10;82.68
72762;SHT30;60886;55.034;73.150;2024-03-25T00:36:43;0.92;83.05
72762;SHT30;60886;55.034;73.150;2024-03-25T00:39:45;0.84;83.55
72762;SHT30;60886;55.034;73.150;2024-03-25T00:42:46;0.87;83.75
72762;SHT30;60886;55.034;73.150;2024-03-25T00:45:49;0.92;83.62
72762;SHT30;60886;55.034;73.150;2024-03-25T00:48:50;0.96;83.99
72762;SHT30;60886;55.034;73.150;2024-03-25T00:51:52;1.11;83.72
72762;SHT30;60886;55.034;73.150;2024-03-25T00:54:53;1.16;83.34
72762;SHT30;60886;55.034;73.150;2024-03-25T00:57:55;1.26;83.23
72762;SHT30;60886;55.034;73.150;2024-03-25T01:00:56;1.30;83.09
72762;SHT30;60886;55.034;73.150;2024-03-25T01:03:58;1.37;83.15
72762;SHT30;60886;55.034;73.150;2024-03-25T01:07:00;1.37;82.87
72762;SHT30;60886;55.034;73.150;2024-03-25T01:10:01;1.43;82.97
72762;SHT30;60886;55.034;73.150;2024-03-25T01:13:05;1.47;82.82
72762;SHT30;60886;55.034;73.150;2024-03-25T01:16:07;1.48;82.67
72762;SHT30;60886;55.034;73.150;2024-03-25T01:19:12;1.54;82.64
72762;SHT30;60886;55.034;73.150;2024-03-25T01:22:14;1.55;82.60
72762;SHT30;60886;55.034;73.150;2024-03-25T01:25:16;1.56;82.65
72762;SHT30;60886;55.034;73.150;2024-03-25T01:28:17;1.56;82.53
72762;SHT30;60886;55.034;73.150;2024-03-25T01:31:19;1.61;82.69
72762;SHT30;60886;55.034;73.150;2024-03-25T01:34:20;1.59;82.58
72762;SHT30;60886;55.034;73.150;2024-03-25T01:37:22;1.66;82.71
72762;SHT30;60886;55.034;73.150;2024-03-25T01:40:24;1.69;82.32
72762;SHT30;60886;55.034;73.150;2024-03-25T01:43:25;1.78;82.29
72762;SHT30;60886;55.034;73.150;2024-03-25T01:46:36;1.81;82.10
72762;SHT30;60886;55.034;73.150;2024-03-25T01:49:38;1.83;82.01
72762;SHT30;60886;55.034;73.150;2024-03-25T01:52:40;1.91;82.00
72762;SHT30;60886;55.034;73.150;2024-03-25T01:55:42;1.92;81.83
72762;SHT30;60886;55.034;73.150;2024-03-25T01:58:44;1.88;81.79
72762;SHT30;60886;55.034;73.150;2024-03-25T02:01:47;1.95;81.86
72762;SHT30;60886;55.034;73.150;2024-03-25T02:04:49;2.02;81.85
72762;SHT30;60886;55.034;73.150;2024-03-25T02:07:51;2.05;81.46
72762;SHT30;60886;55.034;73.150;2024-03-25T02:10:56;2.12;81.45
72762;SHT30;60886;55.034;73.150;2024-03-25T02:13:59;2.18;81.05
72762;SHT30;60886;55.034;73.150;2024-03-25T02:17:01;2.19;81.20
72762;SHT30;60886;55.034;73.150;2024-03-25T02:20:06;2.25;80.89
72762;SHT30;60886;55.034;73.150;2024-03-25T02:23:09;2.13;81.21
72762;SHT30;60886;55.034;73.150;2024-03-25T02:26:11;2.18;81.43
72762;SHT30;60886;55.034;73.150;2024-03-25T02:29:13;2.22;81.09
72762;SHT30;60886;55.034;73.150;2024-03-25T02:32:14;2.29;81.04
72762;SHT30;60886;55.034;73.150;2024-03-25T02:35:16;2.33;80.56
72762;SHT30;60886;55.034;73.150;2024-03-25T02:38:18;2.30;80.66
72762;SHT30;60886;55.034;73.150;2024-03-25T02:41:20;2.34;80.66
72762;SHT30;60886;55.034;73.150;2024-03-25T02:44:23;2.36;80.59
72762;SHT30;60886;55.034;73.150;2024-03-25T02:47:25;2.36;80.44
72762;SHT30;60886;55.034;73.150;2024-03-25T02:50:27;2.29;80.42
72762;SHT30;60886;55.034;73.150;2024-03-25T02:53:28;2.34;80.64
72762;SHT30;60886;55.034;73.150;2024-03-25T02:56:36;2.39;80.20
72762;SHT30;60886;55.034;73.150;2024-03-25T02:59:38;2.47;79.90
72762;SHT30;60886;55.034;73.150;2024-03-25T03:02:39;2.49;79.75
72762;SHT30;60886;55.034;73.150;2024-03-25T03:05:41;2.41;80.50
72762;SHT30;60886;55.034;73.150;2024-03-25T03:08:42;2.50;79.84
72762;SHT30;60886;55.034;73.150;2024-03-25T03:11:44;2.60;79.75
72762;SHT30;60886;55.034;73.150;2024-03-25T03:14:45;2.77;79.10
72762;SHT30;60886;55.034;73.150;2024-03-25T03:17:47;2.87;79.00
72762;SHT30;60886;55.034;73.150;2024-03-25T03:20:48;2.95;78.44
72762;SHT30;60886;55.034;73.150;2024-03-25T03:23:50;3.05;78.19
72762;SHT30;60886;55.034;73.150;2024-03-25T03:26:52;3.15;77.55
72762;SHT30;60886;55.034;73.150;2024-03-25T03:29:53;3.16;77.70
72762;SHT30;60886;55.034;73.150;2024-03-25T03:32:54;3.11;78.03
72762;SHT30;60886;55.034;73.150;2024-03-25T03:35:56;3.24;77.71
72762;SHT30;60886;55.034;73.150;2024-03-25T03:38:57;3.34;77.35
72762;SHT30;60886;55.034;73.150;2024-03-25T03:41:59;3.43;76.93
72762;SHT30;60886;55.034;73.150;2024-03-25T03:45:00;3.52;76.27
72762;SHT30;60886;55.034;73.150;2024-03-25T03:48:02;3.46;76.65
72762;SHT30;60886;55.034;73.150;2024-03-25T03:51:08;3.51;76.75
72762;SHT30;60886;55.034;73.150;2024-03-25T03:54:10;3.70;76.04
72762;SHT30;60886;55.034;73.150;2024-03-25T03:57:11;3.91;75.51
72762;SHT30;60886;55.034;73.150;2024-03-25T04:00:13;3.91;75.32
72762;SHT30;60886;55.034;73.150;2024-03-25T04:03:15;4.14;74.82
72762;SHT30;60886;55.034;73.150;2024-03-25T04:06:16;4.27;74.13
72762;SHT30;60886;55.034;73.150;2024-03-25T04:09:18;4.33;74.23
72762;SHT30;60886;55.034;73.150;2024-03-25T04:12:21;4.58;73.35
72762;SHT30;60886;55.034;73.150;2024-03-25T04:15:23;4.55;72.94
72762;SHT30;60886;55.034;73.150;2024-03-25T04:18:24;4.50;73.43
72762;SHT30;60886;55.034;73.150;2024-03-25T04:21:36;4.44;73.33
72762;SHT30;60886;55.034;73.150;2024-03-25T04:24:37;4.44;73.39
72762;SHT30;60886;55.034;73.150;2024-03-25T04:27:39;4.37;73.38
72762;SHT30;60886;55.034;73.150;2024-03-25T04:30:40;4.48;73.30
72762;SHT30;60886;55.034;73.150;2024-03-25T04:33:42;4.47;72.96
72762;SHT30;60886;55.034;73.150;2024-03-25T04:36:43;4.58;72.90
72762;SHT30;60886;55.034;73.150;2024-03-25T04:39:45;4.68;72.64
72762;SHT30;60886;55.034;73.150;2024-03-25T04:42:53;4.76;72.18
72762;SHT30;60886;55.034;73.150;2024-03-25T04:45:55;4.84;72.22
72762;SHT30;60886;55.034;73.150;2024-03-25T04:48:56;4.97;71.41
72762;SHT30;60886;55.034;73.150;2024-03-25T04:51:58;5.05;71.45
72762;SHT30;60886;55.034;73.150;2024-03-25T04:55:00;4.97;71.16
72762;SHT30;60886;55.034;73.150;2024-03-25T04:58:02;5.08;71.03
72762;SHT30;60886;55.034;73.150;2024-03-25T05:01:03;5.19;70.95
72762;SHT30;60886;55.034;73.150;2024-03-25T05:04:05;5.20;70.41
72762;SHT30;60886;55.034;73.150;2024-03-25T05:07:18;5.19;70.38
72762;SHT30;60886;55.034;73.150;2024-03-25T05:10:43;5.39;70.25
72762;SHT30;60886;55.034;73.150;2024-03-25T05:13:45;5.39;69.89
72762;SHT30;60886;55.034;73.150;2024-03-25T05:16:49;5.54;69.68
72762;SHT30;60886;55.034;73.150;2024-03-25T05:19:53;5.78;69.26
72762;SHT30;60886;55.034;73.150;2024-03-25T05:22:54;5.98;68.31
72762;SHT30;60886;55.034;73.150;2024-03-25T05:25:56;6.07;67.76
72762;SHT30;60886;55.034;73.150;2024-03-25T05:28:57;6.32;67.74
72762;SHT30;60886;55.034;73.150;2024-03-25T05:32:00;6.41;67.19
72762;SHT30;60886;55.034;73.150;2024-03-25T05:35:03;6.41;66.96
72762;SHT30;60886;55.034;73.150;2024-03-25T05:38:05;6.57;66.48
72762;SHT30;60886;55.034;73.150;2024-03-25T05:41:07;6.72;66.15
72762;SHT30;60886;55.034;73.150;2024-03-25T05:44:08;6.79;65.89
72762;SHT30;60886;55.034;73.150;2024-03-25T05:47:10;6.73;65.98
72762;SHT30;60886;55.034;73.150;2024-03-25T05:50:12;6.87;65.58
72762;SHT30;60886;55.034;73.150;2024-03-25T05:53:13;7.03;64.99
72762;SHT30;60886;55.034;73.150;2024-03-25T05:56:15;7.13;64.62
72762;SHT30;60886;55.034;73.150;2024-03-25T05:59:16;7.31;64.14
72762;SHT30;60886;55.034;73.150;2024-03-25T06:02:17;7.38;64.00
72762;SHT30;60886;55.034;73.150;2024-03-25T06:05:19;7.41;63.73
72762;SHT30;60886;55.034;73.150;2024-03-25T06:08:26;7.46;63.43
72762;SHT30;60886;55.034;73.150;2024-03-25T06:11:36;7.50;63.14
72762;SHT30;60886;55.034;73.150;2024-03-25T06:14:40;7.28;63.50
72762;SHT30;60886;55.034;73.150;2024-03-25T06:17:42;7.11;64.57
72762;SHT30;60886;55.034;73.150;2024-03-25T06:20:43;7.13;64.11
72762;SHT30;60886;55.034;73.150;2024-03-25T06:23:44;7.04;64.33
72762;SHT30;60886;55.034;73.150;2024-03-25T06:26:46;7.34;63.29
72762;SHT30;60886;55.034;73.150;2024-03-25T06:29:49;7.51;63.13
72762;SHT30;60886;55.034;73.150;2024-03-25T06:33:10;7.47;63.45
72762;SHT30;60886;55.034;73.150;2024-03-25T06:36:37;7.54;63.04
72762;SHT30;60886;55.034;73.150;2024-03-25T06:39:54;7.62;62.85
72762;SHT30;60886;55.034;73.150;2024-03-25T06:42:56;7.54;63.50
72762;SHT30;60886;55.034;73.150;2024-03-25T06:45:58;7.85;62.35
72762;SHT30;60886;55.034;73.150;2024-03-25T06:48:59;8.02;61.82
72762;SHT30;60886;55.034;73.150;2024-03-25T06:52:01;8.07;61.48
72762;SHT30;60886;55.034;73.150;2024-03-25T06:55:03;7.96;61.32
72762;SHT30;60886;55.034;73.150;2024-03-25T06:58:05;7.58;62.76
72762;SHT30;60886;55.034;73.150;2024-03-25T07:01:08;7.77;62.37
72762;SHT30;60886;55.034;73.150;2024-03-25T07:04:10;7.75;61.76
72762;SHT30;60886;55.034;73.150;2024-03-25T07:07:11;7.55;62.81
72762;SHT30;60886;55.034;73.150;2024-03-25T07:10:13;7.52;62.46
72762;SHT30;60886;55.034;73.150;2024-03-25T07:13:14;7.74;62.32
72762;SHT30;60886;55.034;73.150;2024-03-25T07:16:16;7.74;62.55
72762;SHT30;60886;55.034;73.150;2024-03-25T07:19:19;7.96;62.01
72762;SHT30;60886;55.034;73.150;2024-03-25T07:22:21;7.86;61.08
72762;SHT30;60886;55.034;73.150;2024-03-25T07:25:23;7.82;62.30
72762;SHT30;60886;55.034;73.150;2024-03-25T07:28:29;7.83;61.91
72762;SHT30;60886;55.034;73.150;2024-03-25T07:31:36;8.01;61.39
72762;SHT30;60886;55.034;73.150;2024-03-25T07:34:37;8.25;60.49
72762;SHT30;60886;55.034;73.150;2024-03-25T07:37:39;8.13;60.75
72762;SHT30;60886;55.034;73.150;2024-03-25T07:40:42;8.07;61.00
72762;SHT30;60886;55.034;73.150;2024-03-25T07:43:43;7.99;60.20
72762;SHT30;60886;55.034;73.150;2024-03-25T07:46:45;7.46;62.70
72762;SHT30;60886;55.034;73.150;2024-03-25T07:49:47;7.54;62.30
72762;SHT30;60886;55.034;73.150;2024-03-25T07:52:49;7.51;62.11
72762;SHT30;60886;55.034;73.150;2024-03-25T07:55:54;7.26;63.01
72762;SHT30;60886;55.034;73.150;2024-03-25T07:58:55;7.08;63.70
72762;SHT30;60886;55.034;73.150;2024-03-25T08:02:00;6.89;64.07
72762;SHT30;60886;55.034;73.150;2024-03-25T08:05:01;6.83;63.64
72762;SHT30;60886;55.034;73.150;2024-03-25T08:08:05;6.62;64.72
72762;SHT30;60886;55.034;73.150;2024-03-25T08:11:07;6.59;64.69
72762;SHT30;60886;55.034;73.150;2024-03-25T08:14:09;6.49;65.13
72762;SHT30;60886;55.034;73.150;2024-03-25T08:17:13;6.20;65.69
72762;SHT30;60886;55.034;73.150;2024-03-25T08:20:14;6.18;66.06
72762;SHT30;60886;55.034;73.150;2024-03-25T08:23:16;6.00;66.08
72762;SHT30;60886;55.034;73.150;2024-03-25T08:26:18;5.98;66.29
72762;SHT30;60886;55.034;73.150;2024-03-25T08:29:20;5.93;66.63
72762;SHT30;60886;55.034;73.150;2024-03-25T08:32:22;6.02;66.56
72762;SHT30;60886;55.034;73.150;2024-03-25T08:35:23;5.97;66.11
72762;SHT30;60886;55.034;73.150;2024-03-25T08:38:25;5.94;66.36
72762;SHT30;60886;55.034;73.150;2024-03-25T08:41:36;5.81;66.88
72762;SHT30;60886;55.034;73.150;2024-03-25T08:44:40;5.80;66.92
72762;SHT30;60886;55.034;73.150;2024-03-25T08:47:45;5.74;67.24
72762;SHT30;60886;55.034;73.150;2024-03-25T08:50:47;5.71;67.43
72762;SHT30;60886;55.034;73.150;2024-03-25T08:53:48;5.54;67.91
72762;SHT30;60886;55.034;73.150;2024-03-25T08:56:51;5.53;68.16
72762;SHT30;60886;55.034;73.150;2024-03-25T08:59:52;5.49;68.53
72762;SHT30;60886;55.034;73.150;2024-03-25T09:02:56;5.54;67.81
72762;SHT30;60886;55.034;73.150;2024-03-25T09:05:58;5.51;68.21
72762;SHT30;60886;55.034;73.150;2024-03-25T09:08:59;5.47;68.36
72762;SHT30;60886;55.034;73.150;2024-03-25T09:12:19;5.46;68.29
72762;SHT30;60886;55.034;73.150;2024-03-25T09:15:21;5.30;68.63
72762;SHT30;60886;55.034;73.150;2024-03-25T09:18:22;5.33;68.68
72762;SHT30;60886;55.034;73.150;2024-03-25T09:21:25;5.42;68.40
72762;SHT30;60886;55.034;73.150;2024-03-25T09:24:28;5.40;68.33
72762;SHT30;60886;55.034;73.150;2024-03-25T09:27:29;5.42;68.04
72762;SHT30;60886;55.034;73.150;2024-03-25T09:30:31;5.40;67.63
72762;SHT30;60886;55.034;73.150;2024-03-25T09:33:32;5.43;68.05
72762;SHT30;60886;55.034;73.150;2024-03-25T09:36:36;5.40;67.84
72762;SHT30;60886;55.034;73.150;2024-03-25T09:39:38;5.37;67.86
72762;SHT30;60886;55.034;73.150;2024-03-25T09:42:48;5.36;67.70
72762;SHT30;60886;55.034;73.150;2024-03-25T09:45:49;5.37;67.83
72762;SHT30;60886;55.034;73.150;2024-03-25T09:48:53;5.33;67.95
72762;SHT30;60886;55.034;73.150;2024-03-25T09:51:55;5.32;68.28
72762;SHT30;60886;55.034;73.150;2024-03-25T09:54:56;5.33;68.33
72762;SHT30;60886;55.034;73.150;2024-03-25T09:57:58;5.36;68.40
72762;SHT30;60886;55.034;73.150;2024-03-25T10:01:01;5.30;68.39
72762;SHT30;60886;55.034;73.150;2024-03-25T10:04:03;5.20;68.65
72762;SHT30;60886;55.034;73.150;2024-03-25T10:07:04;5.19;69.00
72762;SHT30;60886;55.034;73.150;2024-03-25T10:10:06;5.22;68.90
72762;SHT30;60886;55.034;73.150;2024-03-25T10:13:08;5.20;68.81
72762;SHT30;60886;55.034;73.150;2024-03-25T10:16:09;5.23;68.71
72762;SHT30;60886;55.034;73.150;2024-03-25T10:19:11;5.25;68.77
72762;SHT30;60886;55.034;73.150;2024-03-25T10:22:13;5.20;68.69
72762;SHT30;60886;55.034;73.150;2024-03-25T10:25:26;5.23;68.71
72762;SHT30;60886;55.034;73.150;2024-03-25T10:28:28;5.16;68.82
72762;SHT30;60886;55.034;73.150;2024-03-25T10:31:36;5.02;69.17
72762;SHT30;60886;55.034;73.150;2024-03-25T10:34:39;5.09;69.26
72762;SHT30;60886;55.034;73.150;2024-03-25T10:37:41;5.09;69.30
72762;SHT30;60886;55.034;73.150;2024-03-25T10:40:44;4.97;69.45
72762;SHT30;60886;55.034;73.150;2024-03-25T10:43:47;5.05;69.66
72762;SHT30;60886;55.034;73.150;2024-03-25T10:46:55;5.08;69.38
72762;SHT30;60886;55.034;73.150;2024-03-25T10:50:00;5.16;69.16
72762;SHT30;60886;55.034;73.150;2024-03-25T10:53:08;5.06;69.37
72762;SHT30;60886;55.034;73.150;2024-03-25T10:56:12;4.95;69.66
72762;SHT30;60886;55.034;73.150;2024-03-25T10:59:15;4.86;69.86
72762;SHT30;60886;55.034;73.150;2024-03-25T11:02:17;4.79;69.99
72762;SHT30;60886;55.034;73.150;2024-03-25T11:05:20;4.81;70.22
72762;SHT30;60886;55.034;73.150;2024-03-25T11:08:30;4.65;70.39
72762;SHT30;60886;55.034;73.150;2024-03-25T11:11:36;4.61;70.80
72762;SHT30;60886;55.034;73.150;2024-03-25T11:14:39;4.52;71.25
72762;SHT30;60886;55.034;73.150;2024-03-25T11:17:48;4.54;71.39
72762;SHT30;60886;55.034;73.150;2024-03-25T11:21:10;4.60;71.16
72762;SHT30;60886;55.034;73.150;2024-03-25T11:24:15;4.57;71.08
72762;SHT30;60886;55.034;73.150;2024-03-25T11:27:21;4.52;71.37
72762;SHT30;60886;55.034;73.150;2024-03-25T11:30:23;4.50;71.64
72762;SHT30;60886;55.034;73.150;2024-03-25T11:33:27;4.50;71.23
72762;SHT30;60886;55.034;73.150;2024-03-25T11:36:36;4.45;71.56
72762;SHT30;60886;55.034;73.150;2024-03-25T11:39:37;4.45;71.79
72762;SHT30;60886;55.034;73.150;2024-03-25T11:42:43;4.36;71.84
72762;SHT30;60886;55.034;73.150;2024-03-25T11:45:49;4.33;72.09
72762;SHT30;60886;55.034;73.150;2024-03-25T11:48:54;4.24;72.10
72762;SHT30;60886;55.034;73.150;2024-03-25T11:51:59;4.10;72.58
72762;SHT30;60886;55.034;73.150;2024-03-25T11:55:00;4.06;72.88
72762;SHT30;60886;55.034;73.150;2024-03-25T11:58:04;3.93;73.26
72762;SHT30;60886;55.034;73.150;2024-03-25T12:01:05;3.89;73.65
72762;SHT30;60886;55.034;73.150;2024-03-25T12:04:16;3.90;73.36
72762;SHT30;60886;55.034;73.150;2024-03-25T12:07:19;3.77;73.86
72762;SHT30;60886;55.034;73.150;2024-03-25T12:10:21;3.69;74.15
72762;SHT30;60886;55.034;73.150;2024-03-25T12:13:41;3.65;74.70
72762;SHT30;60886;55.034;73.150;2024-03-25T12:16:44;3.65;74.60
72762;SHT30;60886;55.034;73.150;2024-03-25T12:23:13;3.80;74.25
72762;SHT30;60886;55.034;73.150;2024-03-25T12:26:15;3.79;74.35
72762;SHT30;60886;55.034;73.150;2024-03-25T12:29:16;3.69;74.46
72762;SHT30;60886;55.034;73.150;2024-03-25T12:32:45;3.63;74.83
72762;SHT30;60886;55.034;73.150;2024-03-25T12:35:47;3.60;75.15
72762;SHT30;60886;55.034;73.150;2024-03-25T12:38:56;3.59;75.26
72762;SHT30;60886;55.034;73.150;2024-03-25T12:41:58;3.46;75.52
72762;SHT30;60886;55.034;73.150;2024-03-25T12:45:05;3.38;75.97
72762;SHT30;60886;55.034;73.150;2024-03-25T12:48:27;3.40;76.22
72762;SHT30;60886;55.034;73.150;2024-03-25T12:51:48;3.39;76.06
72762;SHT30;60886;55.034;73.150;2024-03-25T12:54:49;3.32;76.25
72762;SHT30;60886;55.034;73.150;2024-03-25T12:57:51;3.38;76.36
72762;SHT30;60886;55.034;73.150;2024-03-25T13:00:53;3.29;76.33
72762;SHT30;60886;55.034;73.150;2024-03-25T13:04:12;3.22;76.49
72762;SHT30;60886;55.034;73.150;2024-03-25T13:07:14;3.07;76.99
72762;SHT30;60886;55.034;73.150;2024-03-25T13:10:16;3.03;77.14
72762;SHT30;60886;55.034;73.150;2024-03-25T13:13:18;2.93;77.34
72762;SHT30;60886;55.034;73.150;2024-03-25T13:16:19;2.87;77.49
72762;SHT30;60886;55.034;73.150;2024-03-25T13:19:41;2.76;77.90
72762;SHT30;60886;55.034;73.150;2024-03-25T13:22:42;2.70;78.27
72762;SHT30;60886;55.034;73.150;2024-03-25T13:25:45;2.63;78.39
72762;SHT30;60886;55.034;73.150;2024-03-25T13:28:47;2.50;78.81
72762;SHT30;60886;55.034;73.150;2024-03-25T13:32:04;2.40;79.11
72762;SHT30;60886;55.034;73.150;2024-03-25T13:35:19;2.32;79.42
72762;SHT30;60886;55.034;73.150;2024-03-25T13:38:20;2.28;79.58
72762;SHT30;60886;55.034;73.150;2024-03-25T13:41:22;2.18;79.91
72762;SHT30;60886;55.034;73.150;2024-03-25T13:44:25;2.13;80.12
72762;SHT30;60886;55.034;73.150;2024-03-25T13:47:26;2.10;80.16
72762;SHT30;60886;55.034;73.150;2024-03-25T13:50:28;2.05;80.26
72762;SHT30;60886;55.034;73.150;2024-03-25T13:53:29;2.01;80.54
72762;SHT30;60886;55.034;73.150;2024-03-25T13:56:35;1.94;80.72
72762;SHT30;60886;55.034;73.150;2024-03-25T13:59:37;1.88;80.72
72762;SHT30;60886;55.034;73.150;2024-03-25T14:02:59;1.78;81.10
72762;SHT30;60886;55.034;73.150;2024-03-25T14:06:01;1.72;81.21
72762;SHT30;60886;55.034;73.150;2024-03-25T14:09:03;1.75;81.26
72762;SHT30;60886;55.034;73.150;2024-03-25T14:12:11;1.75;81.12
72762;SHT30;60886;55.034;73.150;2024-03-25T14:15:12;1.69;81.14
72762;SHT30;60886;55.034;73.150;2024-03-25T14:18:14;1.62;81.32
72762;SHT30;60886;55.034;73.150;2024-03-25T14:21:15;1.59;81.62
72762;SHT30;60886;55.034;73.150;2024-03-25T14:24:17;1.54;81.72
72762;SHT30;60886;55.034;73.150;2024-03-25T14:27:18;1.55;81.99
72762;SHT30;60886;55.034;73.150;2024-03-25T14:30:20;1.52;81.98
72762;SHT30;60886;55.034;73.150;2024-03-25T14:33:21;1.47;82.07
72762;SHT30;60886;55.034;73.150;2024-03-25T14:36:24;1.48;82.09
72762;SHT30;60886;55.034;73.150;2024-03-25T14:39:26;1.50;81.92
72762;SHT30;60886;55.034;73.150;2024-03-25T14:42:28;1.43;81.66
72762;SHT30;60886;55.034;73.150;2024-03-25T14:45:31;1.38;82.13
72762;SHT30;60886;55.034;73.150;2024-03-25T14:48:33;1.40;82.26
72762;SHT30;60886;55.034;73.150;2024-03-25T14:51:36;1.37;82.06
72762;SHT30;60886;55.034;73.150;2024-03-25T14:54:38;1.35;82.16
72762;SHT30;60886;55.034;73.150;2024-03-25T14:57:39;1.37;82.14
72762;SHT30;60886;55.034;73.150;2024-03-25T15:00:44;1.27;82.28
72762;SHT30;60886;55.034;73.150;2024-03-25T15:03:45;1.24;82.37
72762;SHT30;60886;55.034;73.150;2024-03-25T15:06:47;1.17;82.69
72762;SHT30;60886;55.034;73.150;2024-03-25T15:09:49;1.13;82.89
72762;SHT30;60886;55.034;73.150;2024-03-25T15:12:50;1.10;82.91
72762;SHT30;60886;55.034;73.150;2024-03-25T15:15:52;1.05;82.97
72762;SHT30;60886;55.034;73.150;2024-03-25T15:18:53;1.10;83.04
72762;SHT30;60886;55.034;73.150;2024-03-25T15:21:55;1.10;82.84
72762;SHT30;60886;55.034;73.150;2024-03-25T15:25:02;1.13;82.69
72762;SHT30;60886;55.034;73.150;2024-03-25T15:28:04;1.13;82.57
72762;SHT30;60886;55.034;73.150;2024-03-25T15:31:06;1.10;82.42
72762;SHT30;60886;55.034;73.150;2024-03-25T15:34:07;1.04;82.43
72762;SHT30;60886;55.034;73.150;2024-03-25T15:37:09;1.04;82.69
72762;SHT30;60886;55.034;73.150;2024-03-25T15:40:14;1.00;82.48
72762;SHT30;60886;55.034;73.150;2024-03-25T15:43:19;0.96;82.84
72762;SHT30;60886;55.034;73.150;2024-03-25T15:46:21;0.93;82.73
72762;SHT30;60886;55.034;73.150;2024-03-25T15:49:25;0.90;82.90
72762;SHT30;60886;55.034;73.150;2024-03-25T15:52:27;0.89;83.05
72762;SHT30;60886;55.034;73.150;2024-03-25T15:55:28;0.92;82.89
72762;SHT30;60886;55.034;73.150;2024-03-25T15:58:31;0.93;82.71
72762;SHT30;60886;55.034;73.150;2024-03-25T16:01:36;0.90;82.56
72762;SHT30;60886;55.034;73.150;2024-03-25T16:04:37;0.86;82.62
72762;SHT30;60886;55.034;73.150;2024-03-25T16:07:41;0.77;82.63
72762;SHT30;60886;55.034;73.150;2024-03-25T16:10:43;0.76;82.95
72762;SHT30;60886;55.034;73.150;2024-03-25T16:13:45;0.79;82.52
72762;SHT30;60886;55.034;73.150;2024-03-25T16:16:48;0.73;82.21
72762;SHT30;60886;55.034;73.150;2024-03-25T16:19:49;0.70;82.16
72762;SHT30;60886;55.034;73.150;2024-03-25T16:22:51;0.68;82.42
72762;SHT30;60886;55.034;73.150;2024-03-25T16:25:52;0.58;82.47
72762;SHT30;60886;55.034;73.150;2024-03-25T16:28:54;0.50;82.58
72762;SHT30;60886;55.034;73.150;2024-03-25T16:31:55;0.44;82.92
72762;SHT30;60886;55.034;73.150;2024-03-25T16:34:57;0.37;83.20
72762;SHT30;60886;55.034;73.150;2024-03-25T16:37:58;0.35;83.43
72762;SHT30;60886;55.034;73.150;2024-03-25T16:41:00;0.30;83.33
72762;SHT30;60886;55.034;73.150;2024-03-25T16:44:02;0.28;83.53
72762;SHT30;60886;55.034;73.150;2024-03-25T16:47:05;0.22;83.62
72762;SHT30;60886;55.034;73.150;2024-03-25T16:50:07;0.17;83.74
72762;SHT30;60886;55.034;73.150;2024-03-25T16:53:09;0.22;83.97
72762;SHT30;60886;55.034;73.150;2024-03-25T16:56:12;0.25;83.87
72762;SHT30;60886;55.034;73.150;2024-03-25T16:59:14;0.28;83.72
72762;SHT30;60886;55.034;73.150;2024-03-25T17:02:15;0.28;83.33
72762;SHT30;60886;55.034;73.150;2024-03-25T17:05:17;0.26;83.01
72762;SHT30;60886;55.034;73.150;2024-03-25T17:08:18;0.25;82.68
72762;SHT30;60886;55.034;73.150;2024-03-25T17:11:20;0.21;83.00
72762;SHT30;60886;55.034;73.150;2024-03-25T17:14:22;0.18;83.27
72762;SHT30;60886;55.034;73.150;2024-03-25T17:17:30;0.14;83.47
72762;SHT30;60886;55.034;73.150;2024-03-25T17:20:36;0.15;83.39
72762;SHT30;60886;55.034;73.150;2024-03-25T17:23:38;0.12;83.14
72762;SHT30;60886;55.034;73.150;2024-03-25T17:26:39;0.09;82.69
72762;SHT30;60886;55.034;73.150;2024-03-25T17:29:41;0.08;82.58
72762;SHT30;60886;55.034;73.150;2024-03-25T17:32:42;0.01;82.48
72762;SHT30;60886;55.034;73.150;2024-03-25T17:35:44;-0.06;82.73
72762;SHT30;60886;55.034;73.150;2024-03-25T17:38:45;-0.09;83.07
72762;SHT30;60886;55.034;73.150;2024-03-25T17:41:47;-0.07;83.21
72762;SHT30;60886;55.034;73.150;2024-03-25T17:44:52;-0.06;83.32
72762;SHT30;60886;55.034;73.150;2024-03-25T17:47:53;-0.06;83.08
72762;SHT30;60886;55.034;73.150;2024-03-25T17:50:56;-0.06;83.03
72762;SHT30;60886;55.034;73.150;2024-03-25T17:54:02;-0.12;82.95
72762;SHT30;60886;55.034;73.150;2024-03-25T17:57:04;-0.17;83.40
72762;SHT30;60886;55.034;73.150;2024-03-25T18:00:06;-0.20;83.57
72762;SHT30;60886;55.034;73.150;2024-03-25T18:03:10;-0.25;83.64
72762;SHT30;60886;55.034;73.150;2024-03-25T18:06:12;-0.27;83.69
72762;SHT30;60886;55.034;73.150;2024-03-25T18:09:14;-0.43;82.51
72762;SHT30;60886;55.034;73.150;2024-03-25T18:12:15;-0.53;82.61
72762;SHT30;60886;55.034;73.150;2024-03-25T18:15:17;-0.60;83.18
72762;SHT30;60886;55.034;73.150;2024-03-25T18:18:19;-0.58;84.00
72762;SHT30;60886;55.034;73.150;2024-03-25T18:21:21;-0.56;84.49
72762;SHT30;60886;55.034;73.150;2024-03-25T18:24:23;-0.60;84.10
72762;SHT30;60886;55.034;73.150;2024-03-25T18:27:24;-0.61;84.15
72762;SHT30;60886;55.034;73.150;2024-03-25T18:30:26;-0.66;84.01
72762;SHT30;60886;55.034;73.150;2024-03-25T18:33:27;-0.76;84.12
72762;SHT30;60886;55.034;73.150;2024-03-25T18:36:35;-0.77;84.37
72762;SHT30;60886;55.034;73.150;2024-03-25T18:39:37;-0.78;84.59
72762;SHT30;60886;55.034;73.150;2024-03-25T18:42:40;-0.80;84.80
72762;SHT30;60886;55.034;73.150;2024-03-25T18:45:41;-0.77;84.79
72762;SHT30;60886;55.034;73.150;2024-03-25T18:48:43;-0.81;84.62
72762;SHT30;60886;55.034;73.150;2024-03-25T18:51:46;-0.80;84.67
72762;SHT30;60886;55.034;73.150;2024-03-25T18:54:48;-0.80;84.72
72762;SHT30;60886;55.034;73.150;2024-03-25T18:57:49;-0.78;85.15
72762;SHT30;60886;55.034;73.150;2024-03-25T19:00:50;-0.87;84.51
72762;SHT30;60886;55.034;73.150;2024-03-25T19:03:52;-0.87;84.62
72762;SHT30;60886;55.034;73.150;2024-03-25T19:06:53;-0.88;84.48
72762;SHT30;60886;55.034;73.150;2024-03-25T19:09:55;-0.95;84.32
72762;SHT30;60886;55.034;73.150;2024-03-25T19:12:56;-0.97;84.57
72762;SHT30;60886;55.034;73.150;2024-03-25T19:15:58;-1.01;84.91
72762;SHT30;60886;55.034;73.150;2024-03-25T19:19:00;-1.05;85.12